sensor_id;sensor_type;location;lat;lon;timestamp;P1;durP1;ratioP1;P2;durP2;ratioP2
29538;SDS011;16482;51.046;4.498;2023-03-31T00:02:02;5.78;;;2.50;;
29538;SDS011;16482;51.046;4.498;2023-03-31T00:04:38;6.57;;;2.80;;
29538;SDS011;16482;51.046;4.498;2023-03-31T00:07:13;7.32;;;2.63;;
29538;SDS011;16482;51.046;4.498;2023-03-31T00:09:40;4.85;;;2.42;;
29538;SDS011;16482;51.046;4.498;2023-03-31T00:12:10;6.20;;;2.63;;
29538;SDS011;16482;51.046;4.498;2023-03-31T00:14:41;7.68;;;2.85;;
29538;SDS011;16482;51.046;4.498;2023-03-31T00:17:08;7.20;;;2.60;;
29538;SDS011;16482;51.046;4.498;2023-03-31T00:19:34;6.80;;;2.80;;
29538;SDS011;16482;51.046;4.498;2023-03-31T00:22:03;7.32;;;2.53;;
29538;SDS011;16482;51.046;4.498;2023-03-31T00:24:31;6.47;;;2.53;;
29538;SDS011;16482;51.046;4.498;2023-03-31T00:27:01;6.30;;;2.70;;
29538;SDS011;16482;51.046;4.498;2023-03-31T00:29:31;8.43;;;2.90;;
29538;SDS011;16482;51.046;4.498;2023-03-31T00:32:00;7.35;;;2.90;;
29538;SDS011;16482;51.046;4.498;2023-03-31T00:34:35;5.25;;;2.85;;
29538;SDS011;16482;51.046;4.498;2023-03-31T00:37:02;6.38;;;2.53;;
29538;SDS011;16482;51.046;4.498;2023-03-31T00:39:35;8.27;;;3.20;;
29538;SDS011;16482;51.046;4.498;2023-03-31T00:42:02;6.43;;;2.95;;
29538;SDS011;16482;51.046;4.498;2023-03-31T00:44:37;7.75;;;3.20;;
29538;SDS011;16482;51.046;4.498;2023-03-31T00:47:24;6.97;;;2.80;;
29538;SDS011;16482;51.046;4.498;2023-03-31T00:49:53;7.72;;;3.00;;
29538;SDS011;16482;51.046;4.498;2023-03-31T00:52:26;6.22;;;2.63;;
29538;SDS011;16482;51.046;4.498;2023-03-31T00:55:07;7.57;;;2.80;;
29538;SDS011;16482;51.046;4.498;2023-03-31T00:57:38;8.30;;;2.75;;
29538;SDS011;16482;51.046;4.498;2023-03-31T01:00:07;6.57;;;2.80;;
29538;SDS011;16482;51.046;4.498;2023-03-31T01:02:57;5.95;;;2.40;;
29538;SDS011;16482;51.046;4.498;2023-03-31T01:05:35;6.53;;;2.53;;
29538;SDS011;16482;51.046;4.498;2023-03-31T01:08:04;6.05;;;2.55;;
29538;SDS011;16482;51.046;4.498;2023-03-31T01:10:32;6.80;;;2.45;;
29538;SDS011;16482;51.046;4.498;2023-03-31T01:13:05;6.00;;;2.13;;
29538;SDS011;16482;51.046;4.498;2023-03-31T01:15:33;7.13;;;2.50;;
29538;SDS011;16482;51.046;4.498;2023-03-31T01:18:00;5.97;;;2.30;;
29538;SDS011;16482;51.046;4.498;2023-03-31T01:28:52;5.97;;;2.15;;
29538;SDS011;16482;51.046;4.498;2023-03-31T01:39:49;8.07;;;2.75;;
29538;SDS011;16482;51.046;4.498;2023-03-31T01:42:34;6.70;;;2.67;;
29538;SDS011;16482;51.046;4.498;2023-03-31T01:45:09;8.13;;;2.83;;
29538;SDS011;16482;51.046;4.498;2023-03-31T01:50:39;7.72;;;2.63;;
29538;SDS011;16482;51.046;4.498;2023-03-31T01:53:21;6.65;;;2.45;;
29538;SDS011;16482;51.046;4.498;2023-03-31T01:56:15;6.22;;;2.28;;
29538;SDS011;16482;51.046;4.498;2023-03-31T01:59:09;5.72;;;2.20;;
29538;SDS011;16482;51.046;4.498;2023-03-31T02:02:20;7.40;;;2.67;;
29538;SDS011;16482;51.046;4.498;2023-03-31T02:04:37;6.88;;;2.53;;
29538;SDS011;16482;51.046;4.498;2023-03-31T02:07:12;4.60;;;2.33;;
29538;SDS011;16482;51.046;4.498;2023-03-31T02:09:52;5.22;;;2.40;;
29538;SDS011;16482;51.046;4.498;2023-03-31T02:12:26;7.50;;;2.67;;
29538;SDS011;16482;51.046;4.498;2023-03-31T02:14:55;5.38;;;2.35;;
29538;SDS011;16482;51.046;4.498;2023-03-31T02:17:23;5.97;;;2.42;;
29538;SDS011;16482;51.046;4.498;2023-03-31T02:19:56;6.15;;;2.25;;
29538;SDS011;16482;51.046;4.498;2023-03-31T02:22:26;5.32;;;2.10;;
29538;SDS011;16482;51.046;4.498;2023-03-31T02:24:58;5.72;;;2.20;;
29538;SDS011;16482;51.046;4.498;2023-03-31T02:27:29;9.73;;;2.80;;
29538;SDS011;16482;51.046;4.498;2023-03-31T02:29:57;5.30;;;1.95;;
29538;SDS011;16482;51.046;4.498;2023-03-31T02:34:56;5.70;;;2.30;;
29538;SDS011;16482;51.046;4.498;2023-03-31T02:37:23;7.43;;;2.53;;
29538;SDS011;16482;51.046;4.498;2023-03-31T02:39:51;6.55;;;2.17;;
29538;SDS011;16482;51.046;4.498;2023-03-31T02:42:18;5.70;;;2.30;;
29538;SDS011;16482;51.046;4.498;2023-03-31T02:44:45;6.05;;;2.00;;
29538;SDS011;16482;51.046;4.498;2023-03-31T02:47:12;6.10;;;2.15;;
29538;SDS011;16482;51.046;4.498;2023-03-31T02:49:41;6.00;;;1.98;;
29538;SDS011;16482;51.046;4.498;2023-03-31T02:58:20;5.97;;;1.85;;
29538;SDS011;16482;51.046;4.498;2023-03-31T03:13:59;4.90;;;1.85;;
29538;SDS011;16482;51.046;4.498;2023-03-31T03:16:47;5.70;;;1.90;;
29538;SDS011;16482;51.046;4.498;2023-03-31T03:19:36;4.68;;;1.75;;
29538;SDS011;16482;51.046;4.498;2023-03-31T03:22:02;5.35;;;2.05;;
29538;SDS011;16482;51.046;4.498;2023-03-31T03:24:31;5.97;;;1.80;;
29538;SDS011;16482;51.046;4.498;2023-03-31T03:27:00;5.35;;;2.05;;
29538;SDS011;16482;51.046;4.498;2023-03-31T03:29:35;3.85;;;1.52;;
29538;SDS011;16482;51.046;4.498;2023-03-31T03:32:01;4.25;;;1.77;;
29538;SDS011;16482;51.046;4.498;2023-03-31T03:34:36;6.65;;;1.90;;
29538;SDS011;16482;51.046;4.498;2023-03-31T03:37:02;4.68;;;1.90;;
29538;SDS011;16482;51.046;4.498;2023-03-31T03:39:31;3.85;;;1.80;;
29538;SDS011;16482;51.046;4.498;2023-03-31T03:42:04;5.63;;;1.88;;
29538;SDS011;16482;51.046;4.498;2023-03-31T03:44:30;4.70;;;2.03;;
29538;SDS011;16482;51.046;4.498;2023-03-31T03:46:59;4.43;;;1.80;;
29538;SDS011;16482;51.046;4.498;2023-03-31T03:49:33;6.30;;;2.00;;
29538;SDS011;16482;51.046;4.498;2023-03-31T03:52:06;4.93;;;1.75;;
29538;SDS011;16482;51.046;4.498;2023-03-31T03:54:32;4.85;;;1.98;;
29538;SDS011;16482;51.046;4.498;2023-03-31T03:57:01;5.53;;;1.85;;
29538;SDS011;16482;51.046;4.498;2023-03-31T03:59:34;5.03;;;1.88;;
29538;SDS011;16482;51.046;4.498;2023-03-31T04:02:03;4.78;;;2.00;;
29538;SDS011;16482;51.046;4.498;2023-03-31T04:04:31;4.55;;;1.88;;
29538;SDS011;16482;51.046;4.498;2023-03-31T04:07:04;5.40;;;1.90;;
29538;SDS011;16482;51.046;4.498;2023-03-31T04:09:33;5.35;;;1.90;;
29538;SDS011;16482;51.046;4.498;2023-03-31T04:12:01;4.43;;;1.88;;
29538;SDS011;16482;51.046;4.498;2023-03-31T04:14:36;6.57;;;1.75;;
29538;SDS011;16482;51.046;4.498;2023-03-31T04:17:02;4.10;;;1.58;;
29538;SDS011;16482;51.046;4.498;2023-03-31T04:19:35;5.57;;;2.08;;
29538;SDS011;16482;51.046;4.498;2023-03-31T04:22:02;4.47;;;1.80;;
29538;SDS011;16482;51.046;4.498;2023-03-31T04:24:31;4.35;;;1.52;;
29538;SDS011;16482;51.046;4.498;2023-03-31T04:27:05;3.70;;;1.55;;
29538;SDS011;16482;51.046;4.498;2023-03-31T04:29:31;5.88;;;2.10;;
29538;SDS011;16482;51.046;4.498;2023-03-31T04:32:05;5.25;;;2.00;;
29538;SDS011;16482;51.046;4.498;2023-03-31T04:34:31;4.75;;;2.05;;
29538;SDS011;16482;51.046;4.498;2023-03-31T04:37:02;5.25;;;1.50;;
29538;SDS011;16482;51.046;4.498;2023-03-31T04:39:31;3.85;;;1.80;;
29538;SDS011;16482;51.046;4.498;2023-03-31T04:42:01;5.20;;;1.80;;
29538;SDS011;16482;51.046;4.498;2023-03-31T04:44:35;5.20;;;1.75;;
29538;SDS011;16482;51.046;4.498;2023-03-31T04:47:00;5.10;;;2.05;;
29538;SDS011;16482;51.046;4.498;2023-03-31T04:49:35;4.85;;;1.60;;
29538;SDS011;16482;51.046;4.498;2023-03-31T04:52:01;3.17;;;1.35;;
29538;SDS011;16482;51.046;4.498;2023-03-31T04:54:30;5.45;;;1.67;;
29538;SDS011;16482;51.046;4.498;2023-03-31T04:57:02;2.28;;;1.30;;
29538;SDS011;16482;51.046;4.498;2023-03-31T04:59:30;3.33;;;1.50;;
29538;SDS011;16482;51.046;4.498;2023-03-31T05:02:04;4.15;;;1.52;;
29538;SDS011;16482;51.046;4.498;2023-03-31T05:04:32;3.03;;;1.02;;
29538;SDS011;16482;51.046;4.498;2023-03-31T05:07:01;2.50;;;1.10;;
29538;SDS011;16482;51.046;4.498;2023-03-31T05:09:34;3.25;;;1.00;;
29538;SDS011;16482;51.046;4.498;2023-03-31T05:12:03;3.03;;;1.30;;
29538;SDS011;16482;51.046;4.498;2023-03-31T05:14:32;3.33;;;1.33;;
29538;SDS011;16482;51.046;4.498;2023-03-31T05:17:00;2.38;;;1.02;;
29538;SDS011;16482;51.046;4.498;2023-03-31T05:19:35;3.45;;;1.50;;
29538;SDS011;16482;51.046;4.498;2023-03-31T05:22:01;2.92;;;1.25;;
29538;SDS011;16482;51.046;4.498;2023-03-31T05:24:30;4.93;;;1.60;;
29538;SDS011;16482;51.046;4.498;2023-03-31T05:27:04;3.75;;;1.17;;
29538;SDS011;16482;51.046;4.498;2023-03-31T05:29:29;3.22;;;1.30;;
29538;SDS011;16482;51.046;4.498;2023-03-31T05:32:01;3.97;;;1.50;;
29538;SDS011;16482;51.046;4.498;2023-03-31T05:34:29;3.80;;;1.52;;
29538;SDS011;16482;51.046;4.498;2023-03-31T05:37:00;2.50;;;1.10;;
29538;SDS011;16482;51.046;4.498;2023-03-31T05:39:29;3.60;;;1.58;;
29538;SDS011;16482;51.046;4.498;2023-03-31T05:41:59;3.75;;;1.15;;
29538;SDS011;16482;51.046;4.498;2023-03-31T05:44:30;3.08;;;1.25;;
29538;SDS011;16482;51.046;4.498;2023-03-31T05:46:55;2.65;;;1.40;;
29538;SDS011;16482;51.046;4.498;2023-03-31T05:49:32;3.60;;;1.40;;
29538;SDS011;16482;51.046;4.498;2023-03-31T05:52:01;3.22;;;1.30;;
29538;SDS011;16482;51.046;4.498;2023-03-31T05:54:30;4.43;;;1.52;;
29538;SDS011;16482;51.046;4.498;2023-03-31T05:57:03;3.75;;;1.40;;
29538;SDS011;16482;51.046;4.498;2023-03-31T05:59:29;4.57;;;1.40;;
29538;SDS011;16482;51.046;4.498;2023-03-31T06:02:09;2.97;;;1.48;;
29538;SDS011;16482;51.046;4.498;2023-03-31T06:04:37;4.40;;;1.60;;
29538;SDS011;16482;51.046;4.498;2023-03-31T06:07:03;5.13;;;1.80;;
29538;SDS011;16482;51.046;4.498;2023-03-31T06:09:33;4.65;;;1.55;;
29538;SDS011;16482;51.046;4.498;2023-03-31T06:12:01;2.90;;;1.40;;
29538;SDS011;16482;51.046;4.498;2023-03-31T06:14:37;4.78;;;1.35;;
29538;SDS011;16482;51.046;4.498;2023-03-31T06:17:03;4.15;;;1.60;;
29538;SDS011;16482;51.046;4.498;2023-03-31T06:19:32;3.55;;;1.70;;
29538;SDS011;16482;51.046;4.498;2023-03-31T06:22:05;2.40;;;1.50;;
29538;SDS011;16482;51.046;4.498;2023-03-31T06:24:31;3.00;;;1.40;;
29538;SDS011;16482;51.046;4.498;2023-03-31T06:27:00;3.83;;;1.60;;
29538;SDS011;16482;51.046;4.498;2023-03-31T06:29:31;4.63;;;1.88;;
29538;SDS011;16482;51.046;4.498;2023-03-31T06:32:05;5.20;;;1.90;;
29538;SDS011;16482;51.046;4.498;2023-03-31T06:34:30;3.88;;;1.65;;
29538;SDS011;16482;51.046;4.498;2023-03-31T06:37:04;3.58;;;1.80;;
29538;SDS011;16482;51.046;4.498;2023-03-31T06:39:32;4.25;;;1.50;;
29538;SDS011;16482;51.046;4.498;2023-03-31T06:42:01;5.63;;;1.85;;
29538;SDS011;16482;51.046;4.498;2023-03-31T06:44:29;5.50;;;2.17;;
29538;SDS011;16482;51.046;4.498;2023-03-31T06:47:03;5.40;;;1.80;;
29538;SDS011;16482;51.046;4.498;2023-03-31T06:49:32;4.47;;;1.63;;
29538;SDS011;16482;51.046;4.498;2023-03-31T06:52:00;4.32;;;1.85;;
29538;SDS011;16482;51.046;4.498;2023-03-31T06:54:30;2.70;;;1.52;;
29538;SDS011;16482;51.046;4.498;2023-03-31T06:57:01;5.03;;;1.83;;
29538;SDS011;16482;51.046;4.498;2023-03-31T06:59:32;6.50;;;2.08;;
29538;SDS011;16482;51.046;4.498;2023-03-31T07:02:08;4.80;;;2.10;;
29538;SDS011;16482;51.046;4.498;2023-03-31T07:04:34;4.47;;;1.80;;
29538;SDS011;16482;51.046;4.498;2023-03-31T07:07:03;4.75;;;1.75;;
29538;SDS011;16482;51.046;4.498;2023-03-31T07:09:31;5.18;;;1.70;;
29538;SDS011;16482;51.046;4.498;2023-03-31T07:12:00;4.85;;;2.17;;
29538;SDS011;16482;51.046;4.498;2023-03-31T07:14:32;5.97;;;2.33;;
29538;SDS011;16482;51.046;4.498;2023-03-31T07:17:00;4.68;;;1.92;;
29538;SDS011;16482;51.046;4.498;2023-03-31T07:19:29;5.65;;;2.28;;
29538;SDS011;16482;51.046;4.498;2023-03-31T07:22:02;4.53;;;2.00;;
29538;SDS011;16482;51.046;4.498;2023-03-31T07:24:30;5.03;;;1.90;;
29538;SDS011;16482;51.046;4.498;2023-03-31T07:27:03;4.22;;;2.10;;
29538;SDS011;16482;51.046;4.498;2023-03-31T07:29:32;4.70;;;1.83;;
29538;SDS011;16482;51.046;4.498;2023-03-31T07:32:00;4.00;;;1.88;;
29538;SDS011;16482;51.046;4.498;2023-03-31T07:34:32;5.90;;;2.30;;
29538;SDS011;16482;51.046;4.498;2023-03-31T07:37:00;5.65;;;2.20;;
29538;SDS011;16482;51.046;4.498;2023-03-31T07:39:32;6.35;;;2.38;;
29538;SDS011;16482;51.046;4.498;2023-03-31T07:42:04;6.75;;;2.97;;
29538;SDS011;16482;51.046;4.498;2023-03-31T07:44:37;7.00;;;2.40;;
29538;SDS011;16482;51.046;4.498;2023-03-31T07:47:03;6.57;;;2.40;;
29538;SDS011;16482;51.046;4.498;2023-03-31T07:49:33;4.75;;;2.10;;
29538;SDS011;16482;51.046;4.498;2023-03-31T07:52:02;5.30;;;2.40;;
29538;SDS011;16482;51.046;4.498;2023-03-31T07:54:36;6.50;;;2.40;;
29538;SDS011;16482;51.046;4.498;2023-03-31T07:57:01;4.75;;;2.03;;
29538;SDS011;16482;51.046;4.498;2023-03-31T07:59:31;5.72;;;2.30;;
29538;SDS011;16482;51.046;4.498;2023-03-31T08:02:05;4.13;;;2.47;;
29538;SDS011;16482;51.046;4.498;2023-03-31T08:04:31;8.15;;;2.53;;
29538;SDS011;16482;51.046;4.498;2023-03-31T08:07:04;7.47;;;2.83;;
29538;SDS011;16482;51.046;4.498;2023-03-31T08:09:31;6.88;;;2.55;;
29538;SDS011;16482;51.046;4.498;2023-03-31T08:11:56;6.50;;;2.90;;
29538;SDS011;16482;51.046;4.498;2023-03-31T08:14:33;7.70;;;2.75;;
29538;SDS011;16482;51.046;4.498;2023-03-31T08:17:01;6.07;;;2.33;;
29538;SDS011;16482;51.046;4.498;2023-03-31T08:19:30;7.32;;;2.90;;
29538;SDS011;16482;51.046;4.498;2023-03-31T08:22:01;8.07;;;3.03;;
29538;SDS011;16482;51.046;4.498;2023-03-31T08:24:30;6.07;;;2.20;;
29538;SDS011;16482;51.046;4.498;2023-03-31T08:27:07;9.43;;;2.88;;
29538;SDS011;16482;51.046;4.498;2023-03-31T08:29:33;7.75;;;3.17;;
29538;SDS011;16482;51.046;4.498;2023-03-31T08:32:07;6.57;;;3.00;;
29538;SDS011;16482;51.046;4.498;2023-03-31T08:34:33;8.80;;;2.88;;
29538;SDS011;16482;51.046;4.498;2023-03-31T08:37:00;7.05;;;2.60;;
29538;SDS011;16482;51.046;4.498;2023-03-31T08:39:31;9.43;;;2.83;;
29538;SDS011;16482;51.046;4.498;2023-03-31T08:44:39;6.18;;;2.50;;
29538;SDS011;16482;51.046;4.498;2023-03-31T08:47:12;7.55;;;3.10;;
29538;SDS011;16482;51.046;4.498;2023-03-31T08:49:50;6.57;;;2.88;;
29538;SDS011;16482;51.046;4.498;2023-03-31T08:52:28;6.85;;;2.92;;
29538;SDS011;16482;51.046;4.498;2023-03-31T08:55:02;7.10;;;2.65;;
29538;SDS011;16482;51.046;4.498;2023-03-31T08:57:37;6.15;;;2.80;;
29538;SDS011;16482;51.046;4.498;2023-03-31T09:00:21;7.75;;;2.97;;
29538;SDS011;16482;51.046;4.498;2023-03-31T09:11:18;9.57;;;2.83;;
29538;SDS011;16482;51.046;4.498;2023-03-31T09:14:17;7.13;;;2.97;;
29538;SDS011;16482;51.046;4.498;2023-03-31T09:19:35;6.85;;;2.83;;
29538;SDS011;16482;51.046;4.498;2023-03-31T09:22:01;10.02;;;3.50;;
29538;SDS011;16482;51.046;4.498;2023-03-31T09:24:38;7.10;;;3.15;;
29538;SDS011;16482;51.046;4.498;2023-03-31T09:27:13;7.15;;;2.58;;
29538;SDS011;16482;51.046;4.498;2023-03-31T09:29:44;6.68;;;2.63;;
29538;SDS011;16482;51.046;4.498;2023-03-31T09:32:29;9.25;;;3.05;;
29538;SDS011;16482;51.046;4.498;2023-03-31T09:37:52;6.53;;;2.83;;
29538;SDS011;16482;51.046;4.498;2023-03-31T09:40:21;7.65;;;3.10;;
29538;SDS011;16482;51.046;4.498;2023-03-31T09:42:59;6.43;;;2.90;;
29538;SDS011;16482;51.046;4.498;2023-03-31T09:45:28;7.80;;;3.15;;
29538;SDS011;16482;51.046;4.498;2023-03-31T09:48:02;6.72;;;2.78;;
29538;SDS011;16482;51.046;4.498;2023-03-31T09:50:32;7.72;;;3.15;;
29538;SDS011;16482;51.046;4.498;2023-03-31T09:53:06;8.02;;;2.70;;
29538;SDS011;16482;51.046;4.498;2023-03-31T09:55:48;9.88;;;3.50;;
29538;SDS011;16482;51.046;4.498;2023-03-31T09:58:17;8.32;;;2.67;;
29538;SDS011;16482;51.046;4.498;2023-03-31T10:01:18;9.27;;;2.90;;
29538;SDS011;16482;51.046;4.498;2023-03-31T10:06:18;9.13;;;2.92;;
29538;SDS011;16482;51.046;4.498;2023-03-31T10:11:22;8.75;;;3.35;;
29538;SDS011;16482;51.046;4.498;2023-03-31T10:14:06;8.63;;;3.13;;
29538;SDS011;16482;51.046;4.498;2023-03-31T10:16:47;9.45;;;3.47;;
29538;SDS011;16482;51.046;4.498;2023-03-31T10:19:19;10.43;;;3.40;;
29538;SDS011;16482;51.046;4.498;2023-03-31T10:22:02;7.05;;;2.85;;
29538;SDS011;16482;51.046;4.498;2023-03-31T10:24:37;9.80;;;3.13;;
29538;SDS011;16482;51.046;4.498;2023-03-31T10:27:06;13.63;;;3.47;;
29538;SDS011;16482;51.046;4.498;2023-03-31T10:29:42;11.55;;;3.17;;
29538;SDS011;16482;51.046;4.498;2023-03-31T10:32:09;8.45;;;3.35;;
29538;SDS011;16482;51.046;4.498;2023-03-31T10:34:51;7.97;;;3.33;;
29538;SDS011;16482;51.046;4.498;2023-03-31T10:37:17;8.52;;;3.40;;
29538;SDS011;16482;51.046;4.498;2023-03-31T10:39:46;9.10;;;3.42;;
29538;SDS011;16482;51.046;4.498;2023-03-31T10:42:21;8.68;;;3.10;;
29538;SDS011;16482;51.046;4.498;2023-03-31T10:44:47;9.48;;;3.65;;
29538;SDS011;16482;51.046;4.498;2023-03-31T10:49:43;8.65;;;3.65;;
29538;SDS011;16482;51.046;4.498;2023-03-31T10:52:22;11.07;;;3.70;;
29538;SDS011;16482;51.046;4.498;2023-03-31T10:54:54;9.38;;;3.55;;
29538;SDS011;16482;51.046;4.498;2023-03-31T10:57:26;8.93;;;3.30;;
29538;SDS011;16482;51.046;4.498;2023-03-31T11:00:02;8.85;;;3.28;;
29538;SDS011;16482;51.046;4.498;2023-03-31T11:11:28;9.90;;;3.67;;
29538;SDS011;16482;51.046;4.498;2023-03-31T11:19:00;12.68;;;3.90;;
29538;SDS011;16482;51.046;4.498;2023-03-31T11:29:05;9.60;;;3.35;;
29538;SDS011;16482;51.046;4.498;2023-03-31T11:31:44;9.55;;;3.38;;
29538;SDS011;16482;51.046;4.498;2023-03-31T11:42:15;7.78;;;3.20;;
29538;SDS011;16482;51.046;4.498;2023-03-31T11:44:57;9.80;;;3.47;;
29538;SDS011;16482;51.046;4.498;2023-03-31T11:47:30;9.23;;;2.85;;
29538;SDS011;16482;51.046;4.498;2023-03-31T11:50:43;7.60;;;3.28;;
29538;SDS011;16482;51.046;4.498;2023-03-31T11:55:29;8.82;;;3.25;;
29538;SDS011;16482;51.046;4.498;2023-03-31T11:57:58;8.38;;;3.10;;
29538;SDS011;16482;51.046;4.498;2023-03-31T12:00:47;7.57;;;3.08;;
29538;SDS011;16482;51.046;4.498;2023-03-31T12:03:23;8.27;;;2.92;;
29538;SDS011;16482;51.046;4.498;2023-03-31T12:06:24;7.30;;;2.95;;
29538;SDS011;16482;51.046;4.498;2023-03-31T12:11:47;6.60;;;2.90;;
29538;SDS011;16482;51.046;4.498;2023-03-31T12:17:23;9.07;;;2.88;;
29538;SDS011;16482;51.046;4.498;2023-03-31T12:20:01;6.13;;;3.03;;
29538;SDS011;16482;51.046;4.498;2023-03-31T12:22:44;6.43;;;2.97;;
29538;SDS011;16482;51.046;4.498;2023-03-31T12:25:22;7.95;;;3.13;;
29538;SDS011;16482;51.046;4.498;2023-03-31T12:27:53;7.22;;;2.72;;
29538;SDS011;16482;51.046;4.498;2023-03-31T12:33:00;7.88;;;2.75;;
29538;SDS011;16482;51.046;4.498;2023-03-31T12:35:35;7.22;;;2.70;;
29538;SDS011;16482;51.046;4.498;2023-03-31T12:38:15;5.78;;;2.75;;
29538;SDS011;16482;51.046;4.498;2023-03-31T12:41:02;6.80;;;2.85;;
29538;SDS011;16482;51.046;4.498;2023-03-31T12:43:57;7.70;;;2.97;;
29538;SDS011;16482;51.046;4.498;2023-03-31T12:52:17;6.93;;;2.50;;
29538;SDS011;16482;51.046;4.498;2023-03-31T13:01:12;9.02;;;2.38;;
29538;SDS011;16482;51.046;4.498;2023-03-31T13:12:13;8.75;;;2.50;;
29538;SDS011;16482;51.046;4.498;2023-03-31T13:14:42;6.05;;;2.13;;
29538;SDS011;16482;51.046;4.498;2023-03-31T13:17:34;6.38;;;2.47;;
29538;SDS011;16482;51.046;4.498;2023-03-31T13:20:16;4.55;;;2.03;;
29538;SDS011;16482;51.046;4.498;2023-03-31T13:23:00;4.88;;;1.80;;
29538;SDS011;16482;51.046;4.498;2023-03-31T13:27:54;6.22;;;2.10;;
29538;SDS011;16482;51.046;4.498;2023-03-31T13:33:06;4.40;;;1.92;;
29538;SDS011;16482;51.046;4.498;2023-03-31T13:35:34;6.32;;;1.88;;
29538;SDS011;16482;51.046;4.498;2023-03-31T13:40:51;4.85;;;2.00;;
29538;SDS011;16482;51.046;4.498;2023-03-31T13:48:57;4.50;;;1.85;;
29538;SDS011;16482;51.046;4.498;2023-03-31T13:55:15;3.38;;;1.40;;
29538;SDS011;16482;51.046;4.498;2023-03-31T14:03:49;3.42;;;1.33;;
29538;SDS011;16482;51.046;4.498;2023-03-31T14:06:37;2.83;;;1.50;;
29538;SDS011;16482;51.046;4.498;2023-03-31T14:09:25;3.45;;;1.63;;
29538;SDS011;16482;51.046;4.498;2023-03-31T14:14:56;3.33;;;1.35;;
29538;SDS011;16482;51.046;4.498;2023-03-31T14:17:26;3.97;;;1.55;;
29538;SDS011;16482;51.046;4.498;2023-03-31T14:34:21;3.72;;;1.23;;
29538;SDS011;16482;51.046;4.498;2023-03-31T14:37:14;2.97;;;1.10;;
29538;SDS011;16482;51.046;4.498;2023-03-31T14:39:46;3.22;;;1.15;;
29538;SDS011;16482;51.046;4.498;2023-03-31T14:42:18;2.10;;;1.10;;
29538;SDS011;16482;51.046;4.498;2023-03-31T14:44:56;2.20;;;0.90;;
29538;SDS011;16482;51.046;4.498;2023-03-31T14:47:28;2.60;;;1.10;;
29538;SDS011;16482;51.046;4.498;2023-03-31T14:50:01;1.77;;;0.80;;
29538;SDS011;16482;51.046;4.498;2023-03-31T14:52:45;1.67;;;0.88;;
29538;SDS011;16482;51.046;4.498;2023-03-31T14:55:29;2.15;;;0.93;;
29538;SDS011;16482;51.046;4.498;2023-03-31T14:57:57;1.92;;;0.90;;
29538;SDS011;16482;51.046;4.498;2023-03-31T15:00:30;1.65;;;0.80;;
29538;SDS011;16482;51.046;4.498;2023-03-31T15:02:58;1.75;;;0.90;;
29538;SDS011;16482;51.046;4.498;2023-03-31T15:05:30;2.10;;;0.68;;
29538;SDS011;16482;51.046;4.498;2023-03-31T15:08:02;1.98;;;0.80;;
29538;SDS011;16482;51.046;4.498;2023-03-31T15:10:34;1.50;;;0.80;;
29538;SDS011;16482;51.046;4.498;2023-03-31T15:13:07;3.92;;;1.05;;
29538;SDS011;16482;51.046;4.498;2023-03-31T15:15:39;2.42;;;0.77;;
29538;SDS011;16482;51.046;4.498;2023-03-31T15:18:05;3.08;;;0.93;;
29538;SDS011;16482;51.046;4.498;2023-03-31T15:20:36;4.68;;;0.80;;
29538;SDS011;16482;51.046;4.498;2023-03-31T15:23:18;2.67;;;0.70;;
29538;SDS011;16482;51.046;4.498;2023-03-31T15:26:02;6.07;;;0.82;;
29538;SDS011;16482;51.046;4.498;2023-03-31T15:28:50;1.45;;;0.80;;
29538;SDS011;16482;51.046;4.498;2023-03-31T15:31:20;1.70;;;0.85;;
29538;SDS011;16482;51.046;4.498;2023-03-31T15:33:48;1.50;;;0.88;;
29538;SDS011;16482;51.046;4.498;2023-03-31T15:36:18;1.35;;;0.60;;
29538;SDS011;16482;51.046;4.498;2023-03-31T15:38:45;1.38;;;0.70;;
29538;SDS011;16482;51.046;4.498;2023-03-31T15:41:19;2.83;;;0.68;;
29538;SDS011;16482;51.046;4.498;2023-03-31T15:43:49;1.40;;;0.75;;
29538;SDS011;16482;51.046;4.498;2023-03-31T15:49:03;1.52;;;0.60;;
29538;SDS011;16482;51.046;4.498;2023-03-31T15:51:42;1.98;;;0.73;;
29538;SDS011;16482;51.046;4.498;2023-03-31T15:54:45;2.08;;;1.00;;
29538;SDS011;16482;51.046;4.498;2023-03-31T15:57:05;2.08;;;0.85;;
29538;SDS011;16482;51.046;4.498;2023-03-31T15:59:46;1.25;;;0.70;;
29538;SDS011;16482;51.046;4.498;2023-03-31T16:02:18;2.28;;;0.80;;
29538;SDS011;16482;51.046;4.498;2023-03-31T16:04:48;2.88;;;0.93;;
29538;SDS011;16482;51.046;4.498;2023-03-31T16:07:24;3.00;;;1.00;;
29538;SDS011;16482;51.046;4.498;2023-03-31T16:09:54;1.75;;;0.80;;
29538;SDS011;16482;51.046;4.498;2023-03-31T16:14:56;2.15;;;1.08;;
29538;SDS011;16482;51.046;4.498;2023-03-31T16:17:38;3.10;;;0.80;;
29538;SDS011;16482;51.046;4.498;2023-03-31T16:20:08;1.45;;;0.68;;
29538;SDS011;16482;51.046;4.498;2023-03-31T16:23:01;2.38;;;0.75;;
29538;SDS011;16482;51.046;4.498;2023-03-31T16:25:35;1.90;;;0.70;;
29538;SDS011;16482;51.046;4.498;2023-03-31T16:28:05;2.22;;;0.77;;
29538;SDS011;16482;51.046;4.498;2023-03-31T16:30:33;1.60;;;0.73;;
29538;SDS011;16482;51.046;4.498;2023-03-31T16:35:35;2.38;;;1.08;;
29538;SDS011;16482;51.046;4.498;2023-03-31T16:38:04;3.78;;;1.15;;
29538;SDS011;16482;51.046;4.498;2023-03-31T16:40:35;2.00;;;0.88;;
29538;SDS011;16482;51.046;4.498;2023-03-31T16:45:38;2.83;;;1.20;;
29538;SDS011;16482;51.046;4.498;2023-03-31T16:48:05;1.98;;;0.90;;
29538;SDS011;16482;51.046;4.498;2023-03-31T16:50:31;4.00;;;1.10;;
29538;SDS011;16482;51.046;4.498;2023-03-31T16:52:57;2.55;;;1.20;;
29538;SDS011;16482;51.046;4.498;2023-03-31T16:55:25;2.88;;;0.90;;
29538;SDS011;16482;51.046;4.498;2023-03-31T16:57:59;2.15;;;0.90;;
29538;SDS011;16482;51.046;4.498;2023-03-31T17:00:29;2.05;;;0.98;;
29538;SDS011;16482;51.046;4.498;2023-03-31T17:02:57;3.03;;;1.00;;
29538;SDS011;16482;51.046;4.498;2023-03-31T17:05:25;2.13;;;0.88;;
29538;SDS011;16482;51.046;4.498;2023-03-31T17:07:55;2.10;;;0.90;;
29538;SDS011;16482;51.046;4.498;2023-03-31T17:10:25;1.95;;;0.90;;
29538;SDS011;16482;51.046;4.498;2023-03-31T17:12:54;3.42;;;1.20;;
29538;SDS011;16482;51.046;4.498;2023-03-31T17:15:22;2.25;;;0.90;;
29538;SDS011;16482;51.046;4.498;2023-03-31T17:17:57;2.70;;;1.00;;
29538;SDS011;16482;51.046;4.498;2023-03-31T17:20:24;3.30;;;1.15;;
29538;SDS011;16482;51.046;4.498;2023-03-31T17:22:57;3.67;;;1.10;;
29538;SDS011;16482;51.046;4.498;2023-03-31T17:25:27;2.70;;;1.00;;
29538;SDS011;16482;51.046;4.498;2023-03-31T17:27:56;2.40;;;1.15;;
29538;SDS011;16482;51.046;4.498;2023-03-31T17:30:24;3.75;;;1.38;;
29538;SDS011;16482;51.046;4.498;2023-03-31T17:32:55;2.53;;;1.20;;
29538;SDS011;16482;51.046;4.498;2023-03-31T17:35:24;3.88;;;1.40;;
29538;SDS011;16482;51.046;4.498;2023-03-31T17:37:59;3.53;;;1.00;;
29538;SDS011;16482;51.046;4.498;2023-03-31T17:40:25;13.77;;;1.52;;
29538;SDS011;16482;51.046;4.498;2023-03-31T17:43:00;4.57;;;1.30;;
29538;SDS011;16482;51.046;4.498;2023-03-31T17:45:27;3.30;;;1.27;;
29538;SDS011;16482;51.046;4.498;2023-03-31T17:47:55;3.47;;;1.15;;
29538;SDS011;16482;51.046;4.498;2023-03-31T17:50:26;2.72;;;1.20;;
29538;SDS011;16482;51.046;4.498;2023-03-31T17:52:55;2.47;;;1.17;;
29538;SDS011;16482;51.046;4.498;2023-03-31T17:55:25;2.90;;;1.00;;
29538;SDS011;16482;51.046;4.498;2023-03-31T17:58:00;2.20;;;1.00;;
29538;SDS011;16482;51.046;4.498;2023-03-31T18:00:26;3.60;;;1.40;;
29538;SDS011;16482;51.046;4.498;2023-03-31T18:02:54;4.13;;;1.60;;
29538;SDS011;16482;51.046;4.498;2023-03-31T18:05:29;2.85;;;1.27;;
29538;SDS011;16482;51.046;4.498;2023-03-31T18:07:58;3.15;;;1.55;;
29538;SDS011;16482;51.046;4.498;2023-03-31T18:10:27;2.45;;;1.00;;
29538;SDS011;16482;51.046;4.498;2023-03-31T18:12:54;3.35;;;1.35;;
29538;SDS011;16482;51.046;4.498;2023-03-31T18:15:28;4.13;;;1.38;;
29538;SDS011;16482;51.046;4.498;2023-03-31T18:17:54;2.33;;;1.42;;